createdAt,value
2017-07-31T00:01:00.058Z,93.90
2017-07-31T00:03:27.577Z,94.00
2017-07-31T00:05:55.873Z,94.10
2017-07-31T00:08:23.384Z,94.10
2017-07-31T00:10:50.929Z,94.20
2017-07-31T00:13:18.437Z,94.30
2017-07-31T00:15:45.977Z,94.30
2017-07-31T00:18:14.274Z,94.20
2017-07-31T00:20:41.801Z,94.20
2017-07-31T00:23:09.320Z,94.00
2017-07-31T00:25:36.849Z,92.70
2017-07-31T00:28:04.372Z,92.40
2017-07-31T00:30:31.887Z,91.60
2017-07-31T00:32:59.421Z,90.80
2017-07-31T00:35:26.959Z,90.30
2017-07-31T00:37:55.263Z,89.70
2017-07-31T00:40:22.794Z,89.70
2017-07-31T00:42:51.092Z,89.70
2017-07-31T00:45:18.603Z,89.70
2017-07-31T00:47:46.153Z,88.60
2017-07-31T00:50:13.680Z,88.40
2017-07-31T00:52:41.200Z,88.90
2017-07-31T00:55:08.729Z,89.20
2017-07-31T00:57:36.265Z,88.00
2017-07-31T01:00:03.809Z,89.20
2017-07-31T01:02:31.326Z,88.60
2017-07-31T01:04:58.873Z,87.90
2017-07-31T01:07:26.388Z,87.40
2017-07-31T01:09:54.199Z,86.20
2017-07-31T01:12:22.514Z,86.40
2017-07-31T01:14:50.053Z,86.30
2017-07-31T01:17:18.337Z,87.30
2017-07-31T01:19:45.889Z,87.30
2017-07-31T01:22:14.166Z,87.00
2017-07-31T01:24:41.680Z,86.30
2017-07-31T01:27:09.217Z,84.50
2017-07-31T01:29:36.736Z,87.30
2017-07-31T01:32:04.296Z,85.30
2017-07-31T01:34:31.848Z,84.80
2017-07-31T01:36:59.417Z,85.30
2017-07-31T01:39:27.028Z,86.70
2017-07-31T01:41:54.585Z,85.20
2017-07-31T01:44:22.136Z,87.60
2017-07-31T01:46:49.703Z,86.10
2017-07-31T01:49:17.267Z,85.40
2017-07-31T01:51:44.840Z,85.20
2017-07-31T01:54:12.428Z,85.80
2017-07-31T01:56:40.037Z,87.50
2017-07-31T01:59:07.602Z,88.40
2017-07-31T02:01:35.158Z,87.70
2017-07-31T02:04:02.728Z,88.40
2017-07-31T02:06:30.283Z,88.30
2017-07-31T02:08:57.889Z,88.20
2017-07-31T02:11:25.452Z,88.20
2017-07-31T02:13:53.051Z,89.20
2017-07-31T02:16:20.591Z,89.20
2017-07-31T02:18:48.177Z,90.00
2017-07-31T02:21:15.748Z,90.70
2017-07-31T02:23:43.329Z,91.10
2017-07-31T02:26:10.917Z,91.00
2017-07-31T02:28:38.491Z,91.30
2017-07-31T02:31:06.130Z,91.50
2017-07-31T02:33:34.489Z,91.80
2017-07-31T02:36:02.076Z,91.80
2017-07-31T02:38:29.636Z,92.00
2017-07-31T02:40:57.213Z,92.20
2017-07-31T02:43:24.775Z,92.30
2017-07-31T02:45:52.374Z,92.50
2017-07-31T02:48:19.909Z,92.50
2017-07-31T02:50:47.483Z,92.50
2017-07-31T02:53:15.035Z,92.70
2017-07-31T02:55:42.613Z,92.70
2017-07-31T02:58:10.161Z,92.70
2017-07-31T03:00:37.769Z,92.90
2017-07-31T03:03:05.359Z,93.00
2017-07-31T03:05:32.941Z,92.90
2017-07-31T03:08:00.597Z,92.90
2017-07-31T03:10:28.174Z,92.90
2017-07-31T03:12:55.770Z,92.90
2017-07-31T03:15:23.308Z,92.90
2017-07-31T03:17:50.874Z,93.00
2017-07-31T03:20:18.450Z,92.90
2017-07-31T03:22:46.009Z,93.00
2017-07-31T03:25:13.586Z,93.10
2017-07-31T03:27:41.162Z,93.10
2017-07-31T03:30:09.549Z,93.00
2017-07-31T03:32:37.165Z,93.10
2017-07-31T03:35:04.724Z,93.00
2017-07-31T03:37:32.316Z,93.00
2017-07-31T03:39:59.895Z,93.10
2017-07-31T03:42:27.433Z,93.10
2017-07-31T03:44:55.010Z,93.10
2017-07-31T03:47:22.600Z,93.00
2017-07-31T03:49:50.169Z,93.10
2017-07-31T03:52:17.745Z,93.10
2017-07-31T03:54:45.317Z,93.20
2017-07-31T03:57:12.892Z,93.20
2017-07-31T03:59:40.468Z,93.30
2017-07-31T04:02:08.030Z,93.30
2017-07-31T04:04:35.597Z,93.30
2017-07-31T04:07:03.162Z,93.40
2017-07-31T04:09:30.704Z,93.40
2017-07-31T04:11:58.293Z,93.50
2017-07-31T04:14:25.845Z,93.40
2017-07-31T04:16:53.421Z,93.80
2017-07-31T04:19:20.970Z,93.20
2017-07-31T04:21:48.529Z,93.20
2017-07-31T04:24:16.056Z,92.60
2017-07-31T04:26:43.651Z,91.80
2017-07-31T04:29:11.209Z,91.40
2017-07-31T04:31:38.786Z,90.30
2017-07-31T04:34:06.344Z,89.00
2017-07-31T04:36:33.928Z,87.20
2017-07-31T04:39:01.487Z,85.90
2017-07-31T04:41:29.053Z,84.70
2017-07-31T04:43:56.632Z,84.10
2017-07-31T04:46:24.180Z,83.60
2017-07-31T04:48:51.762Z,82.40
2017-07-31T04:51:19.318Z,82.20
2017-07-31T04:53:46.894Z,81.60
2017-07-31T04:56:14.462Z,81.60
2017-07-31T04:58:42.027Z,80.40
2017-07-31T05:01:09.573Z,78.70
2017-07-31T05:03:37.133Z,73.20
2017-07-31T05:06:04.692Z,63.10
2017-07-31T05:08:32.287Z,52.70
2017-07-31T05:11:00.567Z,42.80
2017-07-31T05:13:28.872Z,36.90
2017-07-31T05:15:56.380Z,37.00
2017-07-31T05:18:23.888Z,36.90
2017-07-31T05:20:51.425Z,37.20
2017-07-31T05:23:19.705Z,38.10
2017-07-31T05:25:47.246Z,38.10
2017-07-31T05:28:15.531Z,34.50
2017-07-31T05:30:43.387Z,34.50
2017-07-31T05:33:11.677Z,29.10
2017-07-31T05:35:39.213Z,29.00
2017-07-31T05:38:06.749Z,25.30
2017-07-31T05:40:34.294Z,24.60
2017-07-31T05:43:01.809Z,23.60
2017-07-31T05:45:30.119Z,22.90
2017-07-31T05:47:57.627Z,22.80
2017-07-31T05:50:25.142Z,24.60
2017-07-31T05:52:52.681Z,25.00
2017-07-31T05:55:20.186Z,26.20
2017-07-31T05:57:47.724Z,24.70
2017-07-31T06:00:15.237Z,22.60
2017-07-31T06:02:42.777Z,21.50
2017-07-31T06:05:10.293Z,20.00
2017-07-31T06:07:37.829Z,19.00
2017-07-31T06:10:05.351Z,18.70
2017-07-31T06:12:32.877Z,17.40
2017-07-31T06:15:00.400Z,17.80
2017-07-31T06:17:27.916Z,17.20
2017-07-31T06:19:55.465Z,16.90
2017-07-31T06:22:22.985Z,16.70
2017-07-31T06:24:50.557Z,16.00
2017-07-31T06:27:18.460Z,16.80
2017-07-31T06:29:46.020Z,18.60
2017-07-31T06:32:13.533Z,18.80
2017-07-31T06:34:41.090Z,20.60
2017-07-31T06:37:08.610Z,22.70
2017-07-31T06:39:36.113Z,21.00
2017-07-31T06:42:03.663Z,20.50
2017-07-31T06:44:31.174Z,21.60
2017-07-31T06:46:58.709Z,20.80
2017-07-31T06:49:26.232Z,20.30
2017-07-31T06:51:53.777Z,20.00
2017-07-31T06:54:22.069Z,21.50
2017-07-31T06:56:49.601Z,21.50
2017-07-31T06:59:21.402Z,25.00
2017-07-31T07:01:48.940Z,25.00
2017-07-31T07:04:16.487Z,28.20
2017-07-31T07:06:44.048Z,27.70
2017-07-31T07:09:11.576Z,30.50
2017-07-31T07:11:39.079Z,29.70
2017-07-31T07:14:06.609Z,31.10
2017-07-31T07:16:34.895Z,34.30
2017-07-31T07:19:03.235Z,32.70
2017-07-31T07:21:30.768Z,32.70
2017-07-31T07:23:58.305Z,31.70
2017-07-31T07:26:25.812Z,33.00
2017-07-31T07:28:53.341Z,34.30
2017-07-31T07:31:20.849Z,35.00
2017-07-31T07:33:48.636Z,34.80
2017-07-31T07:36:16.918Z,33.70
2017-07-31T07:38:44.449Z,33.70
2017-07-31T07:41:11.959Z,31.90
2017-07-31T07:43:39.523Z,32.60
2017-07-31T07:46:07.061Z,34.60
2017-07-31T07:48:34.573Z,35.30
2017-07-31T07:51:02.105Z,37.30
2017-07-31T07:53:29.615Z,38.50
2017-07-31T07:55:57.917Z,37.70
2017-07-31T07:58:25.441Z,37.60
2017-07-31T08:00:53.753Z,36.70
2017-07-31T08:03:21.260Z,36.70
2017-07-31T08:05:48.781Z,36.80
2017-07-31T08:08:16.297Z,35.80
2017-07-31T08:10:44.600Z,35.60
2017-07-31T08:13:12.114Z,35.60
2017-07-31T08:15:39.652Z,34.80
2017-07-31T08:18:07.166Z,36.00
2017-07-31T08:20:34.680Z,34.60
2017-07-31T08:23:02.211Z,33.50
2017-07-31T08:25:29.728Z,35.10
2017-07-31T08:27:57.268Z,37.40
2017-07-31T08:30:24.787Z,35.60
2017-07-31T08:32:53.243Z,37.00
2017-07-31T08:35:20.767Z,35.50
2017-07-31T08:37:48.306Z,37.30
2017-07-31T08:40:15.821Z,32.40
2017-07-31T08:42:43.354Z,34.10
2017-07-31T08:45:10.872Z,33.30
2017-07-31T08:47:38.407Z,33.40
2017-07-31T08:50:05.931Z,33.20
2017-07-31T08:52:34.264Z,33.40
2017-07-31T08:55:01.764Z,33.30
2017-07-31T08:57:29.275Z,33.60
2017-07-31T08:59:56.817Z,33.80
2017-07-31T09:02:24.329Z,33.40
2017-07-31T09:04:51.859Z,31.70
2017-07-31T09:07:19.366Z,31.60
2017-07-31T09:09:47.666Z,32.00
2017-07-31T09:12:15.198Z,32.00
2017-07-31T09:14:42.767Z,31.70
2017-07-31T09:17:10.283Z,30.30
2017-07-31T09:19:37.813Z,30.60
2017-07-31T09:22:07.236Z,34.30
2017-07-31T09:24:34.773Z,33.20
2017-07-31T09:27:02.313Z,35.00
2017-07-31T09:29:29.871Z,34.20
2017-07-31T09:31:57.446Z,32.30
2017-07-31T09:34:24.977Z,32.60
2017-07-31T09:36:54.188Z,29.70
2017-07-31T09:39:21.719Z,29.60
2017-07-31T09:41:49.265Z,30.20
2017-07-31T09:44:16.782Z,29.70
2017-07-31T09:46:44.313Z,29.70
2017-07-31T09:49:11.829Z,28.10
2017-07-31T09:51:39.369Z,29.90
2017-07-31T09:54:06.897Z,28.90
2017-07-31T09:56:34.438Z,32.00
2017-07-31T09:59:02.710Z,31.40
2017-07-31T10:01:31.034Z,30.00
2017-07-31T10:03:58.554Z,29.90
2017-07-31T10:06:26.840Z,30.50
2017-07-31T10:08:54.373Z,30.50
2017-07-31T10:11:21.894Z,29.60
2017-07-31T10:13:49.467Z,28.60
2017-07-31T10:16:16.992Z,29.70
2017-07-31T10:18:44.559Z,29.70
2017-07-31T10:21:12.068Z,29.00
2017-07-31T10:23:39.625Z,27.70
2017-07-31T10:26:07.141Z,27.50
2017-07-31T10:28:34.680Z,26.70
2017-07-31T10:31:02.207Z,26.70
2017-07-31T10:33:29.755Z,28.50
2017-07-31T10:35:58.182Z,27.30
2017-07-31T10:38:25.699Z,25.00
2017-07-31T10:40:53.255Z,25.10
2017-07-31T10:43:20.781Z,25.40
2017-07-31T10:45:48.320Z,25.40
2017-07-31T10:48:15.842Z,25.30
2017-07-31T10:50:44.145Z,27.30
2017-07-31T10:53:11.652Z,27.40
2017-07-31T10:55:39.197Z,28.30
2017-07-31T10:58:06.714Z,27.20
2017-07-31T11:00:34.304Z,25.50
2017-07-31T11:03:01.808Z,25.70
2017-07-31T11:05:30.130Z,27.70
2017-07-31T11:07:57.638Z,27.70
2017-07-31T11:10:25.148Z,27.10
2017-07-31T11:12:52.706Z,26.20
2017-07-31T11:15:20.215Z,26.70
2017-07-31T11:17:47.753Z,27.00
2017-07-31T11:20:15.264Z,26.10
2017-07-31T11:22:42.802Z,26.50
2017-07-31T11:25:10.318Z,27.10
2017-07-31T11:27:37.869Z,27.00
2017-07-31T11:30:05.386Z,26.90
2017-07-31T11:32:33.689Z,25.40
2017-07-31T11:35:01.203Z,25.40
2017-07-31T11:37:29.518Z,25.10
2017-07-31T11:39:57.034Z,25.10
2017-07-31T11:42:25.321Z,26.10
2017-07-31T11:44:53.616Z,25.40
2017-07-31T11:47:21.196Z,25.30
2017-07-31T11:49:48.739Z,26.30
2017-07-31T11:52:16.249Z,26.00
2017-07-31T11:54:43.795Z,25.00
2017-07-31T11:57:11.308Z,25.40
2017-07-31T11:59:38.838Z,24.40
2017-07-31T12:02:07.121Z,24.10
2017-07-31T12:04:35.442Z,24.10
2017-07-31T12:07:02.986Z,24.10
2017-07-31T12:09:30.530Z,22.00
2017-07-31T12:11:58.036Z,21.90
2017-07-31T12:14:25.590Z,23.00
2017-07-31T12:16:53.105Z,22.10
2017-07-31T12:19:21.393Z,22.10
2017-07-31T12:21:48.942Z,22.20
2017-07-31T12:24:16.463Z,20.40
2017-07-31T12:26:44.001Z,22.70
2017-07-31T12:29:11.513Z,21.40
2017-07-31T12:31:39.800Z,21.60
2017-07-31T12:34:07.327Z,21.50
2017-07-31T12:36:34.857Z,22.40
2017-07-31T12:39:02.377Z,22.40
2017-07-31T12:41:29.918Z,22.50
2017-07-31T12:43:57.442Z,23.80
2017-07-31T12:46:24.954Z,24.20
2017-07-31T12:48:52.516Z,24.60
2017-07-31T12:51:20.056Z,24.60
2017-07-31T12:53:48.356Z,24.30
2017-07-31T12:56:15.855Z,24.30
2017-07-31T12:58:43.401Z,24.70
2017-07-31T13:01:10.913Z,24.50
2017-07-31T13:03:39.210Z,24.70
2017-07-31T13:06:06.721Z,24.70
2017-07-31T13:08:34.256Z,24.70
2017-07-31T13:11:01.767Z,24.90
2017-07-31T13:13:30.063Z,25.00
2017-07-31T13:15:57.574Z,25.00
2017-07-31T13:18:25.093Z,25.10
2017-07-31T13:20:52.655Z,25.20
2017-07-31T13:23:20.165Z,25.50
2017-07-31T13:25:48.472Z,25.20
2017-07-31T13:28:15.989Z,25.20
2017-07-31T13:30:43.519Z,24.50
2017-07-31T13:33:11.026Z,24.70
2017-07-31T13:35:38.616Z,25.40
2017-07-31T13:38:06.124Z,25.10
2017-07-31T13:40:33.699Z,26.70
2017-07-31T13:43:01.978Z,26.80
2017-07-31T13:45:30.249Z,28.00
2017-07-31T13:47:58.549Z,27.80
2017-07-31T13:50:26.172Z,27.80
2017-07-31T13:52:53.693Z,27.60
2017-07-31T13:55:21.200Z,26.50
2017-07-31T13:57:49.528Z,26.80
2017-07-31T14:00:17.049Z,27.30
2017-07-31T14:02:44.590Z,24.80
2017-07-31T14:05:12.108Z,24.30
2017-07-31T14:07:39.663Z,24.90
2017-07-31T14:10:07.182Z,24.80
2017-07-31T14:12:35.461Z,23.30
2017-07-31T14:15:02.997Z,23.30
2017-07-31T14:17:31.279Z,24.40
2017-07-31T14:19:59.581Z,25.00
2017-07-31T14:22:27.111Z,25.00
2017-07-31T14:24:54.641Z,24.20
2017-07-31T14:27:22.173Z,24.00
2017-07-31T14:29:49.702Z,23.80
2017-07-31T14:32:17.981Z,24.40
2017-07-31T14:34:45.520Z,24.40
2017-07-31T14:37:13.809Z,26.10
2017-07-31T14:39:42.136Z,27.00
2017-07-31T14:42:09.680Z,26.90
2017-07-31T14:44:37.206Z,28.50
2017-07-31T14:47:04.748Z,23.20
2017-07-31T14:49:32.266Z,23.10
2017-07-31T14:51:59.831Z,23.90
2017-07-31T14:54:27.333Z,23.50
2017-07-31T14:56:54.865Z,22.30
2017-07-31T14:59:22.387Z,23.30
2017-07-31T15:01:49.913Z,23.30
2017-07-31T15:04:18.194Z,24.80
2017-07-31T15:06:45.728Z,24.20
2017-07-31T15:09:13.233Z,24.80
2017-07-31T15:11:40.777Z,25.70
2017-07-31T15:14:08.308Z,27.30
2017-07-31T15:16:35.859Z,28.60
2017-07-31T15:19:03.373Z,29.00
2017-07-31T15:21:30.907Z,29.60
2017-07-31T15:23:58.448Z,28.00
2017-07-31T15:26:26.728Z,28.00
2017-07-31T15:28:55.048Z,27.70
2017-07-31T15:31:22.561Z,27.70
2017-07-31T15:33:50.865Z,26.10
2017-07-31T15:36:18.388Z,26.00
2017-07-31T15:38:45.926Z,24.70
2017-07-31T15:41:13.456Z,24.90
2017-07-31T15:43:40.995Z,24.80
2017-07-31T15:46:08.511Z,25.00
2017-07-31T15:48:36.056Z,25.00
2017-07-31T15:51:03.589Z,24.20
2017-07-31T15:53:31.114Z,24.00
2017-07-31T15:55:58.680Z,24.50
2017-07-31T15:58:26.969Z,24.30
2017-07-31T16:00:54.500Z,24.30
2017-07-31T16:03:22.018Z,24.90
2017-07-31T16:05:49.560Z,25.40
2017-07-31T16:08:17.070Z,25.50
2017-07-31T16:10:45.380Z,24.50
2017-07-31T16:13:12.961Z,24.40
2017-07-31T16:15:40.513Z,25.70
2017-07-31T16:18:08.124Z,27.40
2017-07-31T16:20:35.762Z,28.10
2017-07-31T16:23:03.327Z,28.00
2017-07-31T16:25:30.958Z,29.20
2017-07-31T16:27:58.567Z,28.20
2017-07-31T16:30:27.022Z,28.20
2017-07-31T16:32:54.569Z,28.10
2017-07-31T16:35:22.076Z,28.40
2017-07-31T16:37:50.349Z,29.70
2017-07-31T16:40:30.625Z,30.00
2017-07-31T16:43:09.070Z,30.00
2017-07-31T16:45:40.325Z,30.20
2017-07-31T16:48:19.749Z,31.70
2017-07-31T16:50:47.258Z,31.50
2017-07-31T16:53:15.536Z,31.50
2017-07-31T16:55:44.051Z,32.00
2017-07-31T16:58:11.577Z,31.20
2017-07-31T17:00:40.601Z,31.90
2017-07-31T17:03:08.112Z,31.90
2017-07-31T17:05:35.646Z,32.20
2017-07-31T17:08:06.211Z,32.20
2017-07-31T17:10:33.750Z,32.80
2017-07-31T17:13:01.274Z,32.70
2017-07-31T17:15:28.800Z,33.10
2017-07-31T17:17:57.093Z,32.80
2017-07-31T17:20:24.628Z,32.80
2017-07-31T17:22:52.911Z,32.90
2017-07-31T17:25:21.217Z,32.70
2017-07-31T17:27:48.783Z,32.70
2017-07-31T17:30:16.301Z,32.40
2017-07-31T17:32:44.617Z,33.40
2017-07-31T17:35:12.129Z,33.20
2017-07-31T17:37:40.440Z,34.70
2017-07-31T17:40:07.954Z,34.30
2017-07-31T17:42:35.488Z,34.10
2017-07-31T17:45:03.006Z,33.90
2017-07-31T17:47:30.546Z,34.40
2017-07-31T17:49:58.824Z,33.50
2017-07-31T17:52:27.132Z,34.10
2017-07-31T17:54:54.640Z,34.10
2017-07-31T17:57:22.185Z,34.10
2017-07-31T17:59:49.735Z,34.30
2017-07-31T18:02:17.254Z,34.40
2017-07-31T18:04:44.806Z,34.50
2017-07-31T18:07:12.320Z,35.20
2017-07-31T18:09:39.852Z,36.20
2017-07-31T18:12:07.409Z,36.60
2017-07-31T18:14:34.966Z,36.60
2017-07-31T18:17:02.491Z,37.70
2017-07-31T18:19:30.807Z,37.90
2017-07-31T18:21:58.338Z,37.90
2017-07-31T18:24:25.872Z,39.50
2017-07-31T18:26:54.178Z,39.30
2017-07-31T18:29:21.697Z,39.20
2017-07-31T18:31:49.245Z,39.50
2017-07-31T18:34:16.771Z,40.40
2017-07-31T18:36:44.294Z,42.40
2017-07-31T18:39:12.569Z,42.60
2017-07-31T18:41:42.026Z,42.50
2017-07-31T18:44:09.544Z,43.60
2017-07-31T18:46:37.064Z,43.50
2017-07-31T18:49:04.581Z,44.40
2017-07-31T18:51:32.118Z,45.00
2017-07-31T18:53:59.628Z,45.50
2017-07-31T18:56:27.160Z,46.00
2017-07-31T18:58:54.674Z,46.10
2017-07-31T19:01:22.964Z,47.90
2017-07-31T19:03:50.501Z,47.80
2017-07-31T19:06:18.014Z,49.10
2017-07-31T19:08:45.552Z,48.70
2017-07-31T19:11:13.281Z,49.30
2017-07-31T19:13:40.894Z,50.00
2017-07-31T19:16:08.399Z,51.20
2017-07-31T19:18:35.948Z,51.90
2017-07-31T19:21:03.461Z,51.80
2017-07-31T19:23:31.001Z,52.10
2017-07-31T19:25:58.529Z,52.40
2017-07-31T19:28:26.035Z,53.20
2017-07-31T19:30:53.569Z,54.20
2017-07-31T19:33:21.839Z,55.10
2017-07-31T19:35:50.128Z,56.40
2017-07-31T19:38:18.409Z,56.10
2017-07-31T19:40:45.953Z,56.00
2017-07-31T19:43:14.246Z,57.60
2017-07-31T19:45:41.776Z,57.50
2017-07-31T19:48:10.056Z,57.70
2017-07-31T19:50:38.363Z,58.70
2017-07-31T19:53:05.879Z,58.70
2017-07-31T19:55:33.413Z,58.90
2017-07-31T19:58:01.064Z,59.70
2017-07-31T20:00:28.578Z,59.60
2017-07-31T20:02:56.875Z,59.60
2017-07-31T20:05:24.409Z,59.60
2017-07-31T20:07:52.713Z,59.60
2017-07-31T20:10:20.242Z,59.60
2017-07-31T20:12:48.540Z,61.00
2017-07-31T20:15:16.057Z,61.00
2017-07-31T20:17:43.608Z,61.40
2017-07-31T20:20:11.121Z,63.00
2017-07-31T20:22:38.653Z,62.20
2017-07-31T20:25:06.941Z,63.40
2017-07-31T20:27:34.489Z,63.40
2017-07-31T20:30:02.781Z,64.00
2017-07-31T20:32:30.309Z,64.00
2017-07-31T20:34:57.860Z,64.40
2017-07-31T20:37:26.305Z,65.30
2017-07-31T20:39:53.835Z,65.30
2017-07-31T20:42:21.350Z,65.90
2017-07-31T20:44:48.877Z,66.50
2017-07-31T20:47:16.402Z,68.40
2017-07-31T20:49:44.708Z,68.40
2017-07-31T20:52:12.233Z,68.40
2017-07-31T20:54:40.551Z,70.40
2017-07-31T20:57:08.110Z,70.40
2017-07-31T20:59:35.649Z,71.30
2017-07-31T21:02:03.178Z,71.20
2017-07-31T21:04:30.708Z,71.20
2017-07-31T21:07:01.726Z,73.10
2017-07-31T21:09:29.276Z,71.90
2017-07-31T21:11:56.832Z,72.00
2017-07-31T21:14:24.354Z,72.10
2017-07-31T21:16:51.880Z,72.80
2017-07-31T21:19:19.402Z,71.90
2017-07-31T21:21:46.941Z,72.60
2017-07-31T21:24:15.225Z,72.50
2017-07-31T21:26:43.529Z,72.90
2017-07-31T21:29:11.049Z,72.80
2017-07-31T21:31:39.358Z,72.40
2017-07-31T21:34:06.881Z,72.40
2017-07-31T21:36:35.170Z,70.20
2017-07-31T21:39:03.482Z,70.80
2017-07-31T21:41:31.012Z,70.80
2017-07-31T21:43:58.550Z,71.10
2017-07-31T21:46:26.826Z,71.00
2017-07-31T21:48:54.360Z,71.00
2017-07-31T21:51:21.890Z,70.90
2017-07-31T21:53:49.465Z,71.60
2017-07-31T21:56:16.986Z,71.90
2017-07-31T21:58:44.538Z,72.60
2017-07-31T22:01:12.053Z,72.80
2017-07-31T22:03:39.602Z,72.50
2017-07-31T22:06:07.145Z,73.10
2017-07-31T22:08:34.669Z,73.50
2017-07-31T22:11:02.250Z,73.70
2017-07-31T22:13:30.741Z,74.40
2017-07-31T22:15:58.268Z,75.10
2017-07-31T22:18:25.789Z,75.90
2017-07-31T22:20:59.096Z,75.10
2017-07-31T22:23:26.609Z,75.10
2017-07-31T22:25:54.157Z,75.00
2017-07-31T22:28:21.733Z,75.50
2017-07-31T22:30:49.297Z,75.70
2017-07-31T22:33:16.836Z,75.90
2017-07-31T22:35:44.376Z,76.00
2017-07-31T22:38:11.905Z,76.70
2017-07-31T22:40:40.199Z,78.40
2017-07-31T22:43:08.506Z,78.20
2017-07-31T22:45:36.023Z,78.10
2017-07-31T22:48:04.338Z,78.80
2017-07-31T22:50:31.855Z,79.20
2017-07-31T22:52:59.394Z,79.30
2017-07-31T22:55:26.919Z,80.30
2017-07-31T22:57:54.449Z,80.80
2017-07-31T23:00:22.749Z,82.40
2017-07-31T23:02:50.263Z,82.40
2017-07-31T23:05:17.793Z,82.70
2017-07-31T23:07:45.301Z,83.30
2017-07-31T23:10:13.596Z,83.90
2017-07-31T23:12:41.129Z,83.80
2017-07-31T23:15:09.510Z,82.80
2017-07-31T23:17:37.795Z,82.40
2017-07-31T23:20:06.093Z,81.80
2017-07-31T23:22:33.616Z,81.80
2017-07-31T23:25:01.177Z,81.10
2017-07-31T23:27:28.686Z,81.20
2017-07-31T23:29:56.216Z,81.10
2017-07-31T23:32:23.748Z,81.80
2017-07-31T23:34:51.261Z,80.20
2017-07-31T23:37:18.801Z,80.10
2017-07-31T23:39:46.308Z,80.10
2017-07-31T23:42:13.852Z,79.70
2017-07-31T23:44:41.433Z,79.50
2017-07-31T23:47:08.995Z,79.80
2017-07-31T23:49:36.511Z,79.40
2017-07-31T23:52:04.061Z,80.00
2017-07-31T23:54:31.579Z,80.70
2017-07-31T23:56:59.115Z,80.10
2017-07-31T23:59:26.670Z,79.90
